• Join FlightAware (Why Join?)
  • Login
  • US Flag 
09:11PM EST


 

Airport Tracker/Info


-or-


 

Live Flight TrackerFlight Track Log ✈ SWA1096 ✈ 21-Apr-2013 ✈ KSLC - KBWI

Flight Track Log - Related Links

Times and Time Zones

All times are in EDT time to prevent confusion due to time zone crossing. See the SWA1096 flight status page for this flight to view local times or setup timezone preferences in your user account.

Time Position Orientation Groundspeed Altitude Reporting Facility
EDT Latitude Longitude Course Direction KTS MPH feet Rate Location/Type
11:00AM 40.7758 -111.9983 202° Southwest 160 184 4,900  Level Salt Lake Center
11:00AM 40.7619 -112.0058 202° Southwest 159 183 5,600 1,860 Climbing Salt Lake Center
11:01AM 40.7756 -112.0914 282° West 233 268 7,800 2,580 Climbing Salt Lake Center
11:02AM 40.8417 -112.1164 344° North 275 316 10,900 3,060 Climbing Salt Lake Center
11:03AM 40.8881 -112.0242 56° Northeast 312 359 14,100 2,640 Climbing Salt Lake Center
11:04AM 40.9275 -111.9111 65° Northeast 358 412 16,300 2,340 Climbing Salt Lake Center
11:05AM 40.9714 -111.7875 65° Northeast 387 445 18,900 2,580 Climbing Salt Lake Center
11:06AM 41.0158 -111.6572 66° East 402 463 21,600 2,700 Climbing Salt Lake Center
11:07AM 41.0411 -111.4725 80° East 437 503 24,500 2,520 Climbing Salt Lake Center
11:08AM 41.0556 -111.3106 83° East 444 511 26,800 1,920 Climbing Salt Lake Center
11:09AM 41.0692 -111.1422 84° East 459 528 28,500 1,680 Climbing Salt Lake Center
11:10AM 41.0847 -110.9678 83° East 478 550 30,300 1,620 Climbing Salt Lake Center
11:11AM 41.0975 -110.7894 85° East 487 560 31,900 1,680 Climbing Salt Lake Center
11:12AM 41.1131 -110.5872 84° East 491 565 33,800 1,500 Climbing Salt Lake Center
11:13AM 41.1264 -110.4114 84° East 499 574 35,000 1,080 Climbing Salt Lake Center
11:14AM 41.1397 -110.2331 84° East 507 583 36,100 1,380 Climbing Salt Lake Center
11:15AM 41.1539 -110.0236 85° East 511 588 37,900 1,380 Climbing Salt Lake Center
11:17AM 41.1661 -109.8506 85° East 499 574 39,000 480 Climbing Salt Lake Center
11:18AM 41.1797 -109.6514 85° East 489 563 39,000  Level Salt Lake Center
11:19AM 41.1914 -109.4800 85° East 489 563 39,000  Level Salt Lake Center
11:20AM 41.2044 -109.2800 85° East 492 566 39,000  Level Salt Lake Center
11:21AM 41.2150 -109.1075 85° East 495 570 39,000  Level Salt Lake Center
11:22AM 41.2278 -108.9097 85° East 489 563 39,000  Level Salt Lake Center
11:23AM 41.2375 -108.7397 86° East 487 560 39,000  Level Salt Lake Center
11:23AM 41.2439 -108.6233 86° East 490 564 39,000  Level Denver Center
11:24AM 41.2550 -108.4225 86° East 491 565 39,000  Level Denver Center
11:25AM 41.2636 -108.2500 86° East 490 564 39,000  Level Denver Center
11:26AM 41.2756 -108.0475 85° East 493 567 39,000  Level Denver Center
11:27AM 41.2781 -107.9903 87° East 497 572 39,000  Level Salt Lake Center
11:27AM 41.2842 -107.8725 86° East 497 572 39,000  Level Denver Center
11:28AM 41.2939 -107.6725 86° East 487 560 39,000  Level Denver Center
11:29AM 41.3033 -107.4992 86° East 491 565 39,000  Level Denver Center
11:31AM 41.3103 -107.3242 87° East 494 568 39,000  Level Denver Center
11:32AM 41.3211 -107.1211 86° East 495 570 39,000  Level Denver Center
11:33AM 41.3272 -106.9461 87° East 495 570 39,000  Level Denver Center
11:34AM 41.3364 -106.7428 86° East 494 568 39,000  Level Denver Center
11:35AM 41.3442 -106.5686 87° East 493 567 39,000  Level Denver Center
11:36AM 41.3517 -106.3839 87° East 493 567 39,000  Level Denver Center
11:37AM 41.3592 -106.1822 87° East 491 565 39,000  Level Denver Center
11:38AM 41.3647 -106.0089 87° East 491 565 39,000  Level Denver Center
11:39AM 41.3711 -105.8047 88° East 494 568 39,000  Level Denver Center
11:40AM 41.3758 -105.6308 88° East 493 567 39,000  Level Denver Center
11:41AM 41.3828 -105.4294 87° East 490 564 39,000  Level Denver Center
11:42AM 41.3872 -105.2586 88° East 486 559 39,000  Level Denver Center
11:43AM 41.3928 -105.0586 88° East 485 558 39,000  Level Denver Center
11:44AM 41.3967 -104.8869 88° East 486 559 39,000  Level Denver Center
11:45AM 41.4017 -104.6919 88° East 477 549 39,000  Level Denver Center
11:46AM 41.4061 -104.5214 88° East 481 554 39,000  Level Denver Center
11:47AM 41.4108 -104.3203 88° East 489 563 39,000  Level Denver Center
11:48AM 41.4125 -104.1481 89° East 489 563 39,000  Level Denver Center
11:49AM 41.4169 -103.9767 88° East 486 559 39,000  Level Denver Center
11:50AM 41.4203 -103.7753 89° East 491 565 39,000  Level Denver Center
11:51AM 41.4222 -103.6033 89° East 488 562 39,000  Level Denver Center
11:52AM 41.4233 -103.4050 90° East 483 556 39,000  Level Denver Center
11:53AM 41.4267 -103.2336 88° East 484 557 39,000  Level Denver Center
11:54AM 41.4286 -103.0339 89° East 483 556 39,000  Level Denver Center
11:55AM 41.4300 -102.8619 89° East 485 558 39,000  Level Denver Center
11:56AM 41.4314 -102.6625 89° East 484 557 39,000  Level Denver Center
11:57AM 41.4319 -102.4947 90° East 476 548 39,000  Level Denver Center
11:58AM 41.4328 -102.2981 90° East 475 547 39,000  Level Denver Center
11:59AM 41.4325 -102.1297 90° East 475 547 39,000  Level Denver Center
12:00PM 41.4331 -101.9303 90° East 480 552 39,000  Level Denver Center
12:01PM 41.4336 -101.7583 90° East 485 558 39,000  Level Denver Center
12:03PM 41.4328 -101.5842 90° East 490 564 39,000  Level Denver Center
12:04PM 41.4317 -101.3811 90° East 490 564 39,000  Level Denver Center
12:05PM 41.4303 -101.2067 91° East 490 564 39,000  Level Denver Center
12:06PM 41.4292 -101.0044 90° East 487 560 39,000  Level Denver Center
12:07PM 41.4269 -100.8319 91° East 485 558 39,000  Level Denver Center
12:08PM 41.4256 -100.6306 90° East 485 558 39,000  Level Denver Center
12:09PM 41.4228 -100.4569 91° East 487 560 39,000  Level Denver Center
12:10PM 41.4194 -100.2553 91° East 485 558 39,000  Level Denver Center
12:11PM 41.4172 -100.0828 91° East 486 559 39,000  Level Denver Center
12:12PM 41.4144 -99.9086 91° East 488 562 39,000  Level Denver Center
12:13PM 41.4111 -99.7008 91° East 486 559 39,000  Level Denver Center
12:14PM 41.4069 -99.5214 92° East 484 557 39,000  Level Denver Center
12:15PM 41.4033 -99.3425 91° East 483 556 39,000  Level Denver Center
12:16PM 41.3981 -99.1619 92° East 484 557 39,000  Level Denver Center
12:17PM 41.3931 -98.9694 92° East 482 555 39,000  Level Minneapolis Center
12:18PM 41.3881 -98.7903 92° East 484 557 39,000  Level Minneapolis Center
12:19PM 41.3828 -98.6119 92° East 483 556 39,000  Level Minneapolis Center
12:20PM 41.3772 -98.4011 92° East 486 559 39,000  Level Minneapolis Center
12:21PM 41.3783 -98.2214 89° East 485 558 39,000  Level Minneapolis Center
12:22PM 41.3853 -98.0403 87° East 482 555 39,000  Level Minneapolis Center
12:23PM 41.3903 -97.8608 88° East 484 557 39,000  Level Minneapolis Center
12:24PM 41.3961 -97.6828 87° East 484 557 39,000  Level Minneapolis Center
12:25PM 41.4008 -97.5025 88° East 486 559 39,000  Level Minneapolis Center
12:26PM 41.4053 -97.3236 88° East 486 559 39,000  Level Minneapolis Center
12:27PM 41.4086 -97.1433 89° East 486 559 39,000  Level Minneapolis Center
12:28PM 41.4139 -96.9636 88° East 486 559 39,000  Level Minneapolis Center
12:29PM 41.4178 -96.7850 88° East 485 558 39,000  Level Minneapolis Center
12:30PM 41.4225 -96.5714 88° East 482 555 39,000  Level Minneapolis Center
12:31PM 41.4256 -96.3953 89° East 477 549 39,000  Level Minneapolis Center
12:32PM 41.4269 -96.2178 89° East 480 552 39,000  Level Minneapolis Center
12:33PM 41.4292 -96.0422 89° East 474 545 39,000  Level Minneapolis Center
12:35PM 41.4317 -95.8644 89° East 477 549 39,000  Level Minneapolis Center
12:36PM 41.4339 -95.6864 89° East 480 552 39,000  Level Minneapolis Center
12:37PM 41.4347 -95.4950 90° East 477 549 39,000  Level Minneapolis Center
12:38PM 41.4367 -95.3181 89° East 477 549 39,000  Level Minneapolis Center
12:39PM 41.4386 -95.1397 89° East 481 554 39,000  Level Minneapolis Center
12:40PM 41.4389 -94.9611 90° East 482 555 39,000  Level Minneapolis Center
12:41PM 41.4394 -94.7822 90° East 482 555 39,000  Level Minneapolis Center
12:42PM 41.4394 -94.6044 90° East 480 552 39,000  Level Minneapolis Center
12:43PM 41.4383 -94.3908 90° East 480 552 39,000  Level Minneapolis Center
12:44PM 41.4397 -94.2150 89° East 476 548 39,000  Level Minneapolis Center
12:45PM 41.4372 -94.0575 91° East 474 545 39,000  Level Minneapolis Center
12:46PM 41.4364 -93.8825 90° East 474 545 39,000  Level Minneapolis Center
12:47PM 41.4261 -93.6731 94° East 474 545 39,000  Level Minneapolis Center
12:48PM 41.4147 -93.4636 94° East 475 547 39,000  Level Minneapolis Center
12:49PM 41.4058 -93.2886 94° East 476 548 39,000  Level Minneapolis Center
12:50PM 41.3953 -93.1136 95° East 476 548 39,000  Level Minneapolis Center
12:51PM 41.3856 -92.9397 94° East 475 547 39,000  Level Minneapolis Center
12:52PM 41.3756 -92.7656 94° East 473 544 39,000  Level Minneapolis Center
12:53PM 41.3653 -92.5936 94° East 471 542 39,000  Level Minneapolis Center
12:54PM 41.3589 -92.4872 95° East 473 544 39,000  Level Chicago Center
12:55PM 41.3469 -92.3036 95° East 475 547 39,000  Level Chicago Center
12:56PM 41.3350 -92.1311 95° East 474 545 39,000  Level Chicago Center
12:57PM 41.3214 -91.9250 95° East 473 544 39,000  Level Chicago Center
12:58PM 41.3108 -91.7525 95° East 473 544 39,000  Level Chicago Center
12:59PM 41.2978 -91.5808 96° East 473 544 39,000  Level Chicago Center
01:00PM 41.2861 -91.4097 95° East 469 540 39,000  Level Chicago Center
01:01PM 41.2717 -91.2164 96° East 473 544 39,000  Level Chicago Center
01:02PM 41.2578 -91.0425 96° East 473 544 39,000  Level Chicago Center
01:03PM 41.2444 -90.8694 96° East 472 543 39,000  Level Chicago Center
01:04PM 41.2319 -90.6958 95° East 472 543 39,000  Level Chicago Center
01:05PM 41.2197 -90.5242 95° East 468 539 39,000  Level Chicago Center
01:06PM 41.2047 -90.3522 97° East 469 540 39,000  Level Chicago Center
01:07PM 41.1881 -90.1475 96° East 465 535 39,000  Level Chicago Center
01:08PM 41.1733 -89.9739 96° East 469 540 39,000  Level Chicago Center
01:09PM 41.1589 -89.8017 96° East 469 540 39,000  Level Chicago Center
01:10PM 41.1433 -89.6294 97° East 469 540 39,000  Level Chicago Center
01:11PM 41.1286 -89.4581 96° East 465 535 39,000  Level Chicago Center
01:12PM 41.1125 -89.2900 97° East 459 528 39,000  Level Chicago Center
01:13PM 41.0972 -89.1250 97° East 464 534 39,000  Level Chicago Center
01:14PM 41.0792 -88.9219 97° East 467 537 39,000  Level Chicago Center
01:15PM 41.0625 -88.7539 97° East 464 534 39,000  Level Chicago Center
01:16PM 41.0464 -88.5856 97° East 464 534 39,000  Level Chicago Center
01:17PM 41.0306 -88.4147 97° East 470 541 39,000  Level Chicago Center
01:19PM 41.0133 -88.2444 98° East 472 543 39,000  Level Chicago Center
01:20PM 40.9925 -88.0386 98° East 477 549 39,000  Level Chicago Center
01:21PM 40.9756 -87.8681 97° East 475 547 39,000  Level Chicago Center
01:22PM 40.9578 -87.6986 98° East 471 542 39,000  Level Chicago Center
01:23PM 40.9403 -87.5286 98° East 471 542 39,000  Level Chicago Center
01:24PM 40.9228 -87.3608 98° East 468 539 39,000  Level Chicago Center
01:25PM 40.9003 -87.1575 98° East 470 541 39,000  Level Chicago Center
01:26PM 40.8819 -86.9894 98° East 470 541 39,000  Level Chicago Center
01:27PM 40.8625 -86.8214 99° East 467 537 39,000  Level Chicago Center
01:28PM 40.8397 -86.6397 99° East 470 541 39,000  Level Chicago Center
01:29PM 40.8206 -86.4689 98° East 473 544 39,000  Level Chicago Center
01:30PM 40.8011 -86.3003 99° East 469 540 39,000  Level Chicago Center
01:31PM 40.7808 -86.1300 99° East 472 543 39,000  Level Chicago Center
01:32PM 40.7597 -85.9594 99° East 474 545 39,000  Level Chicago Center
01:33PM 40.7347 -85.7578 99° East 470 541 39,000  Level Chicago Center
01:34PM 40.7133 -85.5886 99° East 470 541 39,000  Level Chicago Center
01:35PM 40.6919 -85.4200 99° East 471 542 39,000  Level Chicago Center
01:36PM 40.6708 -85.2514 99° East 471 542 39,000  Level Chicago Center
01:37PM 40.6483 -85.0808 100° East 473 544 39,000  Level Chicago Center
01:38PM 40.6222 -84.8761 99° East 474 545 39,000 -120 Level Chicago Center
01:39PM 40.6142 -84.8036 98° East 476 548 38,900  Descending Indianapolis Center
01:40PM 40.5911 -84.6325 100° East 471 542 39,000  Climbing Indianapolis Center
01:41PM 40.5697 -84.4608 99° East 471 542 38,900 -60 Descending Indianapolis Center
01:42PM 40.5458 -84.2906 100° East 468 539 38,900  Level Indianapolis Center
01:43PM 40.5228 -84.1183 100° East 473 544 39,000  Climbing Indianapolis Center
01:44PM 40.4986 -83.9475 100° East 472 543 39,000  Level Indianapolis Center
01:45PM 40.4739 -83.7769 101° East 471 542 39,000  Level Indianapolis Center
01:46PM 40.4500 -83.6058 100° East 471 542 39,000 -60 Level Indianapolis Center
01:47PM 40.4253 -83.4364 101° East 467 537 38,900  Descending Indianapolis Center
01:48PM 40.4006 -83.2653 101° East 470 541 39,000  Climbing Indianapolis Center
01:49PM 40.3717 -83.0669 101° East 470 541 38,900  Descending Indianapolis Center
01:50PM 40.3475 -82.8969 101° East 470 541 39,000  Climbing Indianapolis Center
01:51PM 40.3244 -82.7492 102° East 471 542 39,000  Level Indianapolis Center
01:52PM 40.2956 -82.5531 101° East 470 541 39,000  Level Indianapolis Center
01:53PM 40.2689 -82.3836 102° East 472 543 39,000  Level Indianapolis Center
01:54PM 40.2431 -82.2144 101° East 473 544 39,000 -60 Level Indianapolis Center
01:55PM 40.2178 -82.0486 101° East 470 541 38,900  Descending Indianapolis Center
01:56PM 40.1919 -81.8797 101° East 470 541 39,000  Climbing Indianapolis Center
01:57PM 40.1633 -81.7106 102° East 470 541 39,000  Level Indianapolis Center
01:58PM 40.1481 -81.6017 100° East 466 536 39,000  Level Cleveland Center
01:59PM 40.1203 -81.4300 102° East 471 542 39,000  Level Cleveland Center
01:59PM 40.1069 -81.3675 106° East 480 552 39,000  Level Indianapolis Center
02:00PM 40.0747 -81.1689 102° East 478 550 39,000  Level Indianapolis Center
02:01PM 40.0639 -81.0903 100° East 471 542 39,000 -300 Level Cleveland Center
02:02PM 40.0375 -80.9275 102° East 471 542 38,600 -1,020 Descending Cleveland Center
02:03PM 40.0086 -80.7647 103° East 466 536 37,000 -840 Descending Cleveland Center
02:04PM 39.9775 -80.5994 104° East 466 536 37,000  Level Cleveland Center
02:05PM 39.9419 -80.4342 106° East 466 536 37,000  Level Cleveland Center
02:06PM 39.9103 -80.2719 104° East 471 542 37,000 -600 Level Cleveland Center
02:08PM 39.8422 -79.9450 105° East 471 542 35,300 -900 Descending Cleveland Center
02:09PM 39.8081 -79.7858 106° East 465 535 34,400 -1,500 Descending Cleveland Center
02:11PM 39.7469 -79.4753 104° East 450 518 30,800 -2,040 Descending Washington Center
02:12PM 39.7106 -79.3114 106° East 463 533 28,400 -2,520 Descending Washington Center
02:13PM 39.6778 -79.1506 105° East 463 533 25,800 -1,740 Descending Washington Center
02:14PM 39.6428 -78.9925 106° East 458 527 25,000 -420 Descending Washington Center
02:15PM 39.6039 -78.8156 106° East 464 534 25,000 -600 Level Washington Center
02:16PM 39.5683 -78.6578 106° East 464 534 23,800 -1,860 Descending Washington Center
02:17PM 39.5347 -78.5056 106° East 453 521 21,300 -2,400 Descending Washington Center
02:18PM 39.5028 -78.3619 106° East 433 498 19,000 -2,160 Descending Washington Center
02:19PM 39.4703 -78.2261 107° East 413 475 17,000 -1,920 Descending Washington Center
02:20PM 39.4436 -78.1069 106° East 399 459 15,200 -1,140 Descending Washington Center
02:21PM 39.4317 -77.9750 97° East 380 437 14,800 -1,620 Descending Washington Center
02:22PM 39.4364 -77.8433 87° East 367 422 12,000 -1,920 Descending Washington Center
02:23PM 39.4386 -77.7144 89° East 367 422 11,000 -540 Descending Washington Center
02:24PM 39.4408 -77.5856 89° East 362 417 11,000  Level Washington Center
02:25PM 39.4408 -77.4567 90° East 362 417 11,000  Level Washington Center
02:25PM 39.4500 -77.3333 84° East 360 414 11,000  Level Potomac TRACON
02:26PM 39.4667 -77.2167 79° East 319 367 11,000 -360 Level Potomac TRACON
02:27PM 39.4667 -77.1167 90° East 309 356 10,300 -960 Descending Potomac TRACON
02:28PM 39.4667 -77.0000 90° East 290 334 9,100 -1,320 Descending Potomac TRACON
02:29PM 39.4667 -76.9000 90° East 278 320 7,700 -1,380 Descending Potomac TRACON
02:30PM 39.4667 -76.8000 90° East 271 312 6,400 -1,320 Descending Potomac TRACON
02:31PM 39.4667 -76.7167 90° East 260 299 5,300 -780 Descending Potomac TRACON
02:32PM 39.4333 -76.6500 123° Southeast 256 295 5,000 -420 Descending Potomac TRACON
02:33PM 39.3833 -76.5833 134° Southeast 251 289 4,500 -540 Descending Potomac TRACON
02:34PM 39.3333 -76.5167 134° Southeast 250 288 4,000 -300 Descending Potomac TRACON
02:35PM 39.2833 -76.4667 142° Southeast 243 280 4,000  Level Potomac TRACON
02:36PM 39.2333 -76.4500 166° South 216 249 4,000  Level Potomac TRACON
02:37PM 39.1667 -76.4333 169° South 217 250 4,000 -360 Level Potomac TRACON
02:38PM 39.1167 -76.4667 207° Southwest 213 245 3,300 -780 Descending Potomac TRACON
02:39PM 39.0833 -76.5167 229° Southwest 208 239 2,500 -660 Descending Potomac TRACON
02:40PM 39.0667 -76.5667 247° West 191 220 2,000 -300 Descending Potomac TRACON
02:41PM 39.1000 -76.6000 322° Northwest 155 178 1,900 -120 Descending Potomac TRACON